createdAt,value
2023-03-24T00:00:39.424Z,99278.63
2023-03-24T00:03:08.910Z,99285.45
2023-03-24T00:05:37.103Z,99282.48
2023-03-24T00:08:10.401Z,99274.69
2023-03-24T00:10:40.940Z,99274.42
2023-03-24T00:13:09.482Z,99280.85
2023-03-24T00:15:38.345Z,99282.34
2023-03-24T00:18:10.982Z,99272.33
2023-03-24T00:20:39.294Z,99270.64
2023-03-24T00:23:07.865Z,99269.83
2023-03-24T00:25:40.336Z,99270.08
2023-03-24T00:28:11.519Z,99266.28
2023-03-24T00:30:41.403Z,99266.17
2023-03-24T00:33:09.909Z,99258.82
2023-03-24T00:35:45.605Z,99257.53
2023-03-24T00:38:15.381Z,99258.48
2023-03-24T00:40:49.065Z,99258.51
2023-03-24T00:43:18.006Z,99248.77
2023-03-24T00:45:46.674Z,99250.29
2023-03-24T00:48:20.407Z,99250.33
2023-03-24T00:50:49.341Z,99250.77
2023-03-24T00:53:18.566Z,99247.96
2023-03-24T00:55:53.163Z,99248.27
2023-03-24T00:58:22.070Z,99245.02
2023-03-24T01:00:53.929Z,99245.01
2023-03-24T01:03:27.678Z,99250.46
2023-03-24T01:05:57.817Z,99253.49
2023-03-24T01:08:26.155Z,99254.38
2023-03-24T01:10:54.591Z,99254.28
2023-03-24T01:13:28.904Z,99248.20
2023-03-24T01:15:57.564Z,99254.27
2023-03-24T01:18:25.636Z,99253.77
2023-03-24T01:20:53.940Z,99243.98
2023-03-24T01:23:23.862Z,99249.20
2023-03-24T01:25:52.084Z,99246.32
2023-03-24T01:28:24.961Z,99239.55
2023-03-24T01:30:54.011Z,99245.22
2023-03-24T01:33:22.314Z,99241.52
2023-03-24T01:35:51.277Z,99238.55
2023-03-24T01:38:20.200Z,99237.71
2023-03-24T01:40:48.914Z,99242.71
2023-03-24T01:43:27.671Z,99236.54
2023-03-24T01:46:05.559Z,99237.23
2023-03-24T01:48:52.305Z,99233.98
2023-03-24T01:51:27.305Z,99238.02
2023-03-24T01:54:18.100Z,99233.76
2023-03-24T01:56:55.433Z,99244.45
2023-03-24T01:59:28.728Z,99248.64
2023-03-24T02:02:10.222Z,99246.16
2023-03-24T02:04:56.079Z,99247.13
2023-03-24T02:07:29.861Z,99246.92
2023-03-24T02:10:17.723Z,99244.97
2023-03-24T02:12:46.583Z,99250.37
2023-03-24T02:15:17.991Z,99252.34
2023-03-24T02:17:57.580Z,99257.42
2023-03-24T02:20:44.339Z,99253.58
2023-03-24T02:23:21.971Z,99256.44
2023-03-24T02:26:07.712Z,99254.50
2023-03-24T02:28:46.461Z,99249.67
2023-03-24T02:31:24.432Z,99247.38
2023-03-24T02:34:11.339Z,99249.29
2023-03-24T02:36:55.475Z,99253.06
2023-03-24T02:39:45.419Z,99249.96
2023-03-24T02:42:32.161Z,99256.90
2023-03-24T02:45:33.460Z,99255.84
2023-03-24T02:48:44.103Z,99262.60
2023-03-24T02:51:17.466Z,99264.06
2023-03-24T02:53:54.680Z,99263.66
2023-03-24T02:56:30.194Z,99263.42
2023-03-24T02:59:03.929Z,99262.77
2023-03-24T03:01:38.140Z,99263.23
2023-03-24T03:05:06.431Z,99256.65
2023-03-24T03:07:41.389Z,99262.83
2023-03-24T03:10:15.958Z,99267.85
2023-03-24T03:12:48.686Z,99268.94
2023-03-24T03:15:23.273Z,99264.05
2023-03-24T03:17:53.705Z,99265.72
2023-03-24T03:20:25.052Z,99264.55
2023-03-24T03:22:59.199Z,99268.90
2023-03-24T03:25:29.764Z,99269.02
2023-03-24T03:27:58.806Z,99269.77
2023-03-24T03:30:33.935Z,99271.77
2023-03-24T03:33:10.471Z,99273.39
2023-03-24T03:35:42.550Z,99266.20
2023-03-24T03:38:16.136Z,99271.95
2023-03-24T03:40:59.502Z,99274.30
2023-03-24T03:43:32.088Z,99274.65
2023-03-24T03:46:01.272Z,99281.85
2023-03-24T03:48:34.600Z,99283.80
2023-03-24T03:51:12.417Z,99288.63
2023-03-24T03:53:58.340Z,99287.61
2023-03-24T03:56:31.801Z,99283.59
2023-03-24T03:59:34.679Z,99289.10
2023-03-24T04:02:37.341Z,99288.87
2023-03-24T04:05:10.312Z,99289.86
2023-03-24T04:07:48.900Z,99288.13
2023-03-24T04:10:37.336Z,99288.55
2023-03-24T04:13:26.553Z,99291.36
2023-03-24T04:16:52.389Z,99294.31
2023-03-24T04:19:37.817Z,99293.96
2023-03-24T04:22:24.710Z,99293.74
2023-03-24T04:25:02.612Z,99293.87
2023-03-24T04:27:40.108Z,99299.78
2023-03-24T04:30:23.894Z,99299.60
2023-03-24T04:33:00.859Z,99297.70
2023-03-24T04:35:44.501Z,99305.13
2023-03-24T04:38:27.825Z,99311.36
2023-03-24T04:41:08.030Z,99312.84
2023-03-24T04:43:37.518Z,99314.75
2023-03-24T04:46:07.173Z,99312.92
2023-03-24T04:48:55.691Z,99322.61
2023-03-24T04:51:35.538Z,99330.05
2023-03-24T04:54:16.239Z,99336.83
2023-03-24T04:56:54.399Z,99335.70
2023-03-24T04:59:24.826Z,99338.36
2023-03-24T05:01:52.995Z,99342.21
2023-03-24T05:04:51.224Z,99338.38
2023-03-24T05:07:24.286Z,99334.72
2023-03-24T05:09:57.627Z,99340.16
2023-03-24T05:12:27.674Z,99338.57
2023-03-24T05:15:14.356Z,99336.43
2023-03-24T05:17:42.813Z,99331.64
2023-03-24T05:20:12.160Z,99323.73
2023-03-24T05:22:43.707Z,99326.92
2023-03-24T05:25:12.259Z,99330.41
2023-03-24T05:27:40.479Z,99331.23
2023-03-24T05:30:17.780Z,99332.36
2023-03-24T05:32:47.314Z,99329.50
2023-03-24T05:35:16.240Z,99335.38
2023-03-24T05:37:44.777Z,99335.05
2023-03-24T05:40:13.836Z,99340.44
2023-03-24T05:42:50.568Z,99346.27
2023-03-24T05:45:19.778Z,99346.52
2023-03-24T05:47:48.844Z,99345.90
2023-03-24T05:50:18.529Z,99342.89
2023-03-24T05:52:48.186Z,99345.64
2023-03-24T05:55:31.014Z,99345.69
2023-03-24T05:58:08.621Z,99350.67
2023-03-24T06:00:49.810Z,99346.35
2023-03-24T06:03:25.443Z,99350.18
2023-03-24T06:06:03.784Z,99349.34
2023-03-24T06:08:36.086Z,99352.20
2023-03-24T06:11:05.673Z,99350.07
2023-03-24T06:13:35.283Z,99348.70
2023-03-24T06:16:07.763Z,99342.98
2023-03-24T06:18:42.781Z,99344.71
2023-03-24T06:21:20.673Z,99348.63
2023-03-24T06:23:53.524Z,99346.08
2023-03-24T06:26:31.097Z,99348.58
2023-03-24T06:29:02.272Z,99345.94
2023-03-24T06:31:36.084Z,99348.42
2023-03-24T06:34:06.938Z,99353.55
2023-03-24T06:36:35.248Z,99346.21
2023-03-24T06:39:05.880Z,99346.13
2023-03-24T06:41:34.788Z,99341.31
2023-03-24T06:44:09.954Z,99340.22
2023-03-24T06:46:40.793Z,99340.14
2023-03-24T06:49:09.264Z,99345.04
2023-03-24T06:51:37.948Z,99346.23
2023-03-24T06:54:06.460Z,99349.78
2023-03-24T06:56:36.841Z,99347.29
2023-03-24T06:59:05.016Z,99353.20
2023-03-24T07:01:36.286Z,99349.48
2023-03-24T07:04:25.935Z,99348.95
2023-03-24T07:07:19.630Z,99347.92
2023-03-24T07:10:10.587Z,99353.96
2023-03-24T07:12:40.599Z,99349.18
2023-03-24T07:15:09.534Z,99353.46
2023-03-24T07:17:41.654Z,99350.04
2023-03-24T07:20:28.444Z,99354.37
2023-03-24T07:23:14.949Z,99352.36
2023-03-24T07:26:01.771Z,99354.75
2023-03-24T07:28:50.987Z,99354.02
2023-03-24T07:31:58.887Z,99365.02
2023-03-24T07:34:28.514Z,99362.70
2023-03-24T07:36:56.849Z,99362.48
2023-03-24T07:39:28.510Z,99365.17
2023-03-24T07:41:57.137Z,99363.52
2023-03-24T07:44:32.818Z,99355.55
2023-03-24T07:47:05.643Z,99357.63
2023-03-24T07:49:34.912Z,99354.79
2023-03-24T07:52:06.783Z,99359.65
2023-03-24T07:54:48.460Z,99364.38
2023-03-24T07:57:35.438Z,99356.80
2023-03-24T08:00:18.236Z,99359.94
2023-03-24T08:02:57.194Z,99350.05
2023-03-24T08:05:53.091Z,99355.48
2023-03-24T08:08:38.947Z,99360.00
2023-03-24T08:11:07.056Z,99355.02
2023-03-24T08:13:36.134Z,99354.77
2023-03-24T08:16:04.758Z,99358.09
2023-03-24T08:18:35.116Z,99360.12
2023-03-24T08:21:06.276Z,99356.96
2023-03-24T08:23:36.703Z,99354.22
2023-03-24T08:26:05.084Z,99351.71
2023-03-24T08:28:35.224Z,99353.88
2023-03-24T08:31:04.428Z,99349.98
2023-03-24T08:33:35.078Z,99346.72
2023-03-24T08:36:04.973Z,99344.65
2023-03-24T08:38:33.490Z,99348.04
2023-03-24T08:41:06.879Z,99347.04
2023-03-24T08:43:37.629Z,99347.56
2023-03-24T08:46:14.036Z,99352.70
2023-03-24T08:48:43.978Z,99357.17
2023-03-24T08:51:16.126Z,99348.70
2023-03-24T08:53:46.276Z,99343.35
2023-03-24T08:56:14.553Z,99342.39
2023-03-24T08:58:42.786Z,99340.48
2023-03-24T09:01:10.944Z,99337.63
2023-03-24T09:03:40.260Z,99334.00
2023-03-24T09:06:08.984Z,99337.23
2023-03-24T09:08:37.783Z,99340.30
2023-03-24T09:11:06.560Z,99346.11
2023-03-24T09:13:35.817Z,99343.39
2023-03-24T09:16:04.221Z,99339.57
2023-03-24T09:18:38.548Z,99347.42
2023-03-24T09:21:07.050Z,99340.20
2023-03-24T09:23:35.613Z,99337.11
2023-03-24T09:26:03.900Z,99340.35
2023-03-24T09:28:32.575Z,99337.71
2023-03-24T09:31:02.714Z,99333.45
2023-03-24T09:33:31.971Z,99331.13
2023-03-24T09:36:01.321Z,99332.04
2023-03-24T09:38:33.758Z,99339.81
2023-03-24T09:41:04.247Z,99333.08
2023-03-24T09:43:42.433Z,99334.01
2023-03-24T09:46:21.724Z,99336.41
2023-03-24T09:48:52.177Z,99333.32
2023-03-24T09:51:24.002Z,99329.64
2023-03-24T09:53:57.547Z,99326.19
2023-03-24T09:56:26.541Z,99320.28
2023-03-24T09:59:05.654Z,99320.77
2023-03-24T10:01:37.118Z,99314.52
2023-03-24T10:04:05.557Z,99318.86
2023-03-24T10:06:42.808Z,99316.29
2023-03-24T10:09:31.654Z,99311.77
2023-03-24T10:12:11.929Z,99315.14
2023-03-24T10:15:27.153Z,99311.33
2023-03-24T10:18:14.478Z,99312.73
2023-03-24T10:21:07.566Z,99311.91
2023-03-24T10:23:41.106Z,99312.89
2023-03-24T10:26:28.433Z,99311.80
2023-03-24T10:29:22.201Z,99311.17
2023-03-24T10:31:58.165Z,99299.83
2023-03-24T10:34:33.493Z,99292.20
2023-03-24T10:37:05.349Z,99293.05
2023-03-24T10:39:43.957Z,99290.98
2023-03-24T10:42:26.749Z,99291.42
2023-03-24T10:45:01.710Z,99289.22
2023-03-24T10:47:34.461Z,99287.84
2023-03-24T10:50:15.742Z,99289.34
2023-03-24T10:52:53.416Z,99275.53
2023-03-24T10:55:23.771Z,99278.23
2023-03-24T10:57:56.931Z,99280.25
2023-03-24T11:00:29.939Z,99276.63
2023-03-24T11:03:01.830Z,99272.16
2023-03-24T11:05:35.848Z,99279.73
2023-03-24T11:08:42.872Z,99269.70
2023-03-24T11:11:15.853Z,99264.73
2023-03-24T11:13:44.475Z,99267.10
2023-03-24T11:16:14.759Z,99257.40
2023-03-24T11:19:01.265Z,99264.23
2023-03-24T11:21:30.800Z,99261.13
2023-03-24T11:24:00.390Z,99264.57
2023-03-24T11:26:35.868Z,99252.17
2023-03-24T11:29:20.615Z,99252.30
2023-03-24T11:31:57.317Z,99252.00
2023-03-24T11:34:38.793Z,99242.54
2023-03-24T11:37:18.544Z,99239.11
2023-03-24T11:39:47.587Z,99245.95
2023-03-24T11:42:16.672Z,99247.60
2023-03-24T11:44:50.226Z,99243.79
2023-03-24T11:47:36.467Z,99244.80
2023-03-24T11:50:10.490Z,99239.51
2023-03-24T11:53:04.355Z,99231.98
2023-03-24T11:55:39.362Z,99243.96
2023-03-24T11:58:49.973Z,99234.73
2023-03-24T12:03:33.185Z,99224.08
2023-03-24T12:06:11.889Z,99207.04
2023-03-24T12:08:43.360Z,99198.27
2023-03-24T12:11:33.604Z,99204.46
2023-03-24T12:14:01.983Z,99198.90
2023-03-24T12:17:03.824Z,99198.14
2023-03-24T12:20:12.554Z,99194.34
2023-03-24T12:22:48.133Z,99194.20
2023-03-24T12:25:35.352Z,99189.17
2023-03-24T12:28:09.639Z,99191.52
2023-03-24T12:30:59.678Z,99185.38
2023-03-24T12:33:58.197Z,99186.48
2023-03-24T12:36:34.270Z,99189.84
2023-03-24T12:39:13.705Z,99196.31
2023-03-24T12:42:03.195Z,99204.03
2023-03-24T12:44:34.133Z,99191.70
2023-03-24T12:47:29.922Z,99189.60
2023-03-24T12:50:24.209Z,99182.23
2023-03-24T12:55:51.404Z,99178.31
2023-03-24T12:58:21.702Z,99171.06
2023-03-24T13:00:53.478Z,99152.54
2023-03-24T13:03:41.673Z,99151.73
2023-03-24T13:06:49.975Z,99151.08
2023-03-24T13:09:32.032Z,99146.52
2023-03-24T13:12:18.908Z,99140.35
2023-03-24T13:15:04.239Z,99148.70
2023-03-24T13:17:45.208Z,99156.34
2023-03-24T13:20:17.285Z,99148.41
2023-03-24T13:22:47.173Z,99151.85
2023-03-24T13:25:38.129Z,99148.64
2023-03-24T13:28:09.949Z,99142.72
2023-03-24T13:30:41.564Z,99146.40
2023-03-24T13:33:16.866Z,99145.19
2023-03-24T13:35:58.091Z,99142.58
2023-03-24T13:38:48.757Z,99137.66
2023-03-24T13:41:27.205Z,99128.71
2023-03-24T13:44:01.822Z,99123.80
2023-03-24T13:46:30.974Z,99135.54
2023-03-24T13:49:00.549Z,99130.02
2023-03-24T13:51:38.170Z,99133.42
2023-03-24T13:54:17.605Z,99138.00
2023-03-24T13:57:09.256Z,99122.21
2023-03-24T14:00:08.551Z,99128.95
2023-03-24T14:02:47.295Z,99127.61
2023-03-24T14:05:52.081Z,99122.50
2023-03-24T14:08:22.120Z,99127.96
2023-03-24T14:10:50.773Z,99125.92
2023-03-24T14:13:22.339Z,99118.86
2023-03-24T14:15:55.834Z,99127.33
2023-03-24T14:18:27.225Z,99121.41
2023-03-24T14:21:02.528Z,99117.30
2023-03-24T14:23:40.613Z,99123.09
2023-03-24T14:26:23.320Z,99122.09
2023-03-24T14:28:52.632Z,99123.02
2023-03-24T14:31:33.669Z,99129.35
2023-03-24T14:34:14.078Z,99122.27
2023-03-24T14:36:43.563Z,99118.81
2023-03-24T14:39:28.416Z,99113.77
2023-03-24T14:41:59.077Z,99114.77
2023-03-24T14:44:46.729Z,99114.29
2023-03-24T14:47:36.059Z,99117.13
2023-03-24T14:50:12.814Z,99105.25
2023-03-24T14:52:43.069Z,99110.02
2023-03-24T14:55:19.914Z,99108.98
2023-03-24T14:57:53.181Z,99107.90
2023-03-24T15:01:03.890Z,99102.62
2023-03-24T15:04:07.484Z,99101.19
2023-03-24T15:06:44.782Z,99093.98
2023-03-24T15:09:14.286Z,99094.52
2023-03-24T15:11:42.776Z,99104.70
2023-03-24T15:14:17.911Z,99092.47
2023-03-24T15:16:52.609Z,99093.05
2023-03-24T15:19:27.487Z,99096.54
2023-03-24T15:22:02.739Z,99097.70
2023-03-24T15:24:40.627Z,99105.55
2023-03-24T15:27:09.378Z,99103.15
2023-03-24T15:29:40.366Z,99105.16
2023-03-24T15:32:19.513Z,99112.04
2023-03-24T15:34:56.493Z,99107.59
2023-03-24T15:37:38.563Z,99102.73
2023-03-24T15:40:31.592Z,99100.58
2023-03-24T15:43:06.947Z,99098.52
2023-03-24T15:45:51.013Z,99097.83
2023-03-24T15:48:30.775Z,99095.83
2023-03-24T15:51:03.743Z,99101.55
2023-03-24T15:53:45.893Z,99095.14
2023-03-24T15:56:19.358Z,99097.69
2023-03-24T15:58:54.646Z,99104.05
2023-03-24T16:01:31.734Z,99101.02
2023-03-24T16:04:01.376Z,99098.27
2023-03-24T16:06:35.594Z,99103.06
2023-03-24T16:09:11.276Z,99106.02
2023-03-24T16:11:41.875Z,99101.88
2023-03-24T16:14:23.400Z,99101.49
2023-03-24T16:17:00.588Z,99101.41
2023-03-24T16:19:29.687Z,99103.96
2023-03-24T16:21:57.991Z,99115.92
2023-03-24T16:24:30.362Z,99113.45
2023-03-24T16:26:58.499Z,99112.24
2023-03-24T16:29:30.027Z,99114.73
2023-03-24T16:31:59.001Z,99118.07
2023-03-24T16:34:27.155Z,99118.88
2023-03-24T16:36:57.466Z,99119.36
2023-03-24T16:39:27.502Z,99127.35
2023-03-24T16:42:01.743Z,99125.52
2023-03-24T16:44:30.677Z,99124.85
2023-03-24T16:46:58.783Z,99124.46
2023-03-24T16:49:28.405Z,99125.45
2023-03-24T16:51:57.380Z,99124.58
2023-03-24T16:54:33.873Z,99125.27
2023-03-24T16:57:02.051Z,99125.52
2023-03-24T16:59:30.511Z,99122.23
2023-03-24T17:02:03.249Z,99126.69
2023-03-24T17:04:34.206Z,99123.77
2023-03-24T17:07:05.101Z,99126.21
2023-03-24T17:09:36.213Z,99127.83
2023-03-24T17:12:04.879Z,99128.54
2023-03-24T17:14:33.279Z,99125.52
2023-03-24T17:17:04.649Z,99125.67
2023-03-24T17:19:33.121Z,99122.94
2023-03-24T17:22:05.938Z,99123.18
2023-03-24T17:24:41.743Z,99121.88
2023-03-24T17:27:14.950Z,99125.16
2023-03-24T17:29:43.196Z,99125.12
2023-03-24T17:32:12.133Z,99123.61
2023-03-24T17:34:45.643Z,99130.48
2023-03-24T17:37:14.587Z,99128.16
2023-03-24T17:39:43.208Z,99131.66
2023-03-24T17:42:14.662Z,99133.66
2023-03-24T17:44:44.809Z,99138.20
2023-03-24T17:47:12.824Z,99138.73
2023-03-24T17:50:01.644Z,99142.41
2023-03-24T17:52:41.139Z,99142.81
2023-03-24T17:55:10.438Z,99143.48
2023-03-24T17:57:38.771Z,99141.89
2023-03-24T18:00:10.360Z,99141.75
2023-03-24T18:02:39.448Z,99137.25
2023-03-24T18:05:11.860Z,99133.33
2023-03-24T18:07:40.827Z,99131.84
2023-03-24T18:10:09.337Z,99132.95
2023-03-24T18:12:38.522Z,99132.34
2023-03-24T18:15:07.640Z,99140.30
2023-03-24T18:17:36.483Z,99145.08
2023-03-24T18:20:11.351Z,99147.25
2023-03-24T18:22:41.063Z,99150.89
2023-03-24T18:25:10.604Z,99150.77
2023-03-24T18:27:45.861Z,99152.83
2023-03-24T18:30:14.615Z,99155.10
2023-03-24T18:32:43.074Z,99152.15
2023-03-24T18:35:16.722Z,99155.59
2023-03-24T18:37:45.276Z,99154.36
2023-03-24T18:40:15.840Z,99156.11
2023-03-24T18:42:45.334Z,99156.54
2023-03-24T18:45:18.412Z,99155.89
2023-03-24T18:47:48.091Z,99158.13
2023-03-24T18:50:17.792Z,99156.92
2023-03-24T18:52:50.623Z,99158.21
2023-03-24T18:55:21.003Z,99158.48
2023-03-24T18:57:49.524Z,99157.30
2023-03-24T19:00:20.259Z,99156.14
2023-03-24T19:02:52.462Z,99156.58
2023-03-24T19:05:20.701Z,99151.77
2023-03-24T19:07:52.242Z,99152.73
2023-03-24T19:10:20.893Z,99151.80
2023-03-24T19:12:50.664Z,99147.55
2023-03-24T19:15:25.114Z,99145.31
2023-03-24T19:17:53.332Z,99139.23
2023-03-24T19:20:27.443Z,99133.05
2023-03-24T19:22:59.789Z,99129.59
2023-03-24T19:25:28.119Z,99132.09
2023-03-24T19:27:57.235Z,99131.41
2023-03-24T19:30:25.815Z,99130.69
2023-03-24T19:32:55.131Z,99124.98
2023-03-24T19:35:27.349Z,99133.32
2023-03-24T19:37:56.718Z,99128.94
2023-03-24T19:40:27.943Z,99125.66
2023-03-24T19:42:55.981Z,99119.83
2023-03-24T19:45:27.751Z,99117.73
2023-03-24T19:47:56.725Z,99107.52
2023-03-24T19:50:25.498Z,99103.14
2023-03-24T19:52:54.133Z,99097.98
2023-03-24T19:55:22.206Z,99091.83
2023-03-24T19:57:50.288Z,99089.05
2023-03-24T20:00:19.274Z,99085.73
2023-03-24T20:02:48.295Z,99084.42
2023-03-24T20:05:17.474Z,99080.35
2023-03-24T20:07:48.027Z,99080.38
2023-03-24T20:10:17.483Z,99078.27
2023-03-24T20:12:45.743Z,99072.94
2023-03-24T20:15:14.834Z,99072.09
2023-03-24T20:17:42.967Z,99070.06
2023-03-24T20:20:15.750Z,99065.05
2023-03-24T20:22:49.379Z,99063.88
2023-03-24T20:25:19.069Z,99065.68
2023-03-24T20:27:48.042Z,99063.16
2023-03-24T20:30:17.636Z,99059.64
2023-03-24T20:32:48.031Z,99059.08
2023-03-24T20:35:18.256Z,99053.77
2023-03-24T20:37:46.995Z,99051.59
2023-03-24T20:40:15.251Z,99045.75
2023-03-24T20:42:44.147Z,99039.92
2023-03-24T20:45:12.231Z,99042.19
2023-03-24T20:47:44.365Z,99039.81
2023-03-24T20:50:12.885Z,99040.92
2023-03-24T20:52:47.491Z,99042.54
2023-03-24T20:55:36.145Z,99044.44
2023-03-24T20:58:09.322Z,99036.34
2023-03-24T21:00:43.812Z,99033.04
2023-03-24T21:03:13.011Z,99031.73
2023-03-24T21:05:41.440Z,99027.48
2023-03-24T21:08:09.554Z,99026.13
2023-03-24T21:10:57.625Z,99024.08
2023-03-24T21:13:36.966Z,99024.79
2023-03-24T21:16:08.836Z,99020.50
2023-03-24T21:18:44.071Z,99023.66
2023-03-24T21:21:13.056Z,99024.33
2023-03-24T21:23:42.388Z,99023.95
2023-03-24T21:26:15.853Z,99019.06
2023-03-24T21:28:44.813Z,99018.05
2023-03-24T21:31:19.760Z,99013.67
2023-03-24T21:33:48.817Z,99008.66
2023-03-24T21:36:17.155Z,99010.04
2023-03-24T21:38:49.971Z,99005.05
2023-03-24T21:41:18.711Z,98999.56
2023-03-24T21:43:47.001Z,98995.90
2023-03-24T21:46:21.655Z,98999.97
2023-03-24T21:48:52.367Z,98994.04
2023-03-24T21:51:24.202Z,98993.88
2023-03-24T21:53:55.822Z,98993.09
2023-03-24T21:56:24.780Z,98994.02
2023-03-24T21:58:55.981Z,98997.73
2023-03-24T22:01:25.296Z,98996.59
2023-03-24T22:03:58.757Z,98994.48
2023-03-24T22:06:38.676Z,98986.49
2023-03-24T22:09:06.869Z,98988.23
2023-03-24T22:11:35.363Z,98984.70
2023-03-24T22:14:10.527Z,98979.60
2023-03-24T22:16:41.110Z,98984.08
2023-03-24T22:19:09.914Z,98985.01
2023-03-24T22:21:39.744Z,98988.80
2023-03-24T22:24:08.642Z,98984.52
2023-03-24T22:26:36.952Z,98986.58
2023-03-24T22:29:06.189Z,98983.45
2023-03-24T22:31:34.725Z,98980.52
2023-03-24T22:34:02.667Z,98979.13
2023-03-24T22:36:32.372Z,98975.33
2023-03-24T22:39:00.652Z,98968.67
2023-03-24T22:41:28.741Z,98972.67
2023-03-24T22:43:57.173Z,98972.55
2023-03-24T22:46:25.607Z,98972.73
2023-03-24T22:48:54.696Z,98979.54
2023-03-24T22:51:22.814Z,98975.88
2023-03-24T22:53:52.635Z,98975.96
2023-03-24T22:56:20.768Z,98972.98
2023-03-24T22:58:49.167Z,98967.95
2023-03-24T23:01:18.393Z,98958.77
2023-03-24T23:03:46.780Z,98958.27
2023-03-24T23:06:21.518Z,98957.21
2023-03-24T23:08:53.634Z,98957.82
2023-03-24T23:11:21.857Z,98950.61
2023-03-24T23:14:08.225Z,98957.16
2023-03-24T23:16:38.027Z,98954.23
2023-03-24T23:19:12.355Z,98953.53
2023-03-24T23:21:43.248Z,98952.51
2023-03-24T23:24:11.268Z,98950.02
2023-03-24T23:26:39.236Z,98947.52
2023-03-24T23:29:07.712Z,98946.52
2023-03-24T23:31:37.428Z,98947.16
2023-03-24T23:34:07.630Z,98936.77
2023-03-24T23:36:35.944Z,98935.45
2023-03-24T23:39:05.960Z,98938.64
2023-03-24T23:41:36.024Z,98932.75
2023-03-24T23:44:04.417Z,98930.98
2023-03-24T23:46:33.811Z,98938.56
2023-03-24T23:49:02.096Z,98931.40
2023-03-24T23:51:33.161Z,98932.27
2023-03-24T23:54:01.166Z,98926.55
2023-03-24T23:56:40.644Z,98924.27
2023-03-24T23:59:09.945Z,98916.78
